createdAt,value
2023-03-16T00:01:56.263Z,99266.48
2023-03-16T00:03:58.986Z,99266.20
2023-03-16T00:06:02.055Z,99265.00
2023-03-16T00:08:05.320Z,99269.54
2023-03-16T00:10:09.458Z,99270.52
2023-03-16T00:12:18.485Z,99276.46
2023-03-16T00:14:23.013Z,99281.66
2023-03-16T00:16:28.104Z,99276.45
2023-03-16T00:18:31.263Z,99272.73
2023-03-16T00:20:34.169Z,99269.83
2023-03-16T00:22:36.830Z,99266.00
2023-03-16T00:24:40.141Z,99268.55
2023-03-16T00:26:42.805Z,99268.42
2023-03-16T00:28:45.749Z,99268.00
2023-03-16T00:30:51.580Z,99268.55
2023-03-16T00:32:54.280Z,99264.76
2023-03-16T00:34:56.896Z,99259.97
2023-03-16T00:36:59.691Z,99261.23
2023-03-16T00:39:02.425Z,99255.79
2023-03-16T00:41:07.261Z,99256.36
2023-03-16T00:43:10.118Z,99257.58
2023-03-16T00:45:13.009Z,99260.31
2023-03-16T00:47:15.918Z,99258.89
2023-03-16T00:49:18.983Z,99261.95
2023-03-16T00:51:22.946Z,99265.88
2023-03-16T00:53:27.643Z,99265.72
2023-03-16T00:55:32.236Z,99261.73
2023-03-16T00:57:34.898Z,99259.10
2023-03-16T00:59:38.688Z,99258.63
2023-03-16T01:01:42.135Z,99259.87
2023-03-16T01:03:44.888Z,99264.55
2023-03-16T01:05:47.640Z,99267.81
2023-03-16T01:07:50.321Z,99269.66
2023-03-16T01:09:53.221Z,99262.86
2023-03-16T01:11:56.134Z,99261.98
2023-03-16T01:13:59.736Z,99267.07
2023-03-16T01:16:04.475Z,99262.69
2023-03-16T01:18:07.535Z,99254.93
2023-03-16T01:20:12.672Z,99257.34
2023-03-16T01:22:16.000Z,99250.66
2023-03-16T01:24:18.630Z,99253.73
2023-03-16T01:26:23.058Z,99248.11
2023-03-16T01:28:28.766Z,99246.06
2023-03-16T01:30:31.556Z,99247.42
2023-03-16T01:32:34.306Z,99248.80
2023-03-16T01:34:37.317Z,99247.77
2023-03-16T01:36:40.531Z,99252.10
2023-03-16T01:38:44.113Z,99253.64
2023-03-16T01:40:51.380Z,99248.90
2023-03-16T01:43:04.486Z,99246.89
2023-03-16T01:45:47.486Z,99247.73
2023-03-16T01:47:50.602Z,99248.88
2023-03-16T01:49:56.964Z,99248.30
2023-03-16T01:52:10.256Z,99247.04
2023-03-16T01:54:38.484Z,99240.59
2023-03-16T01:57:05.930Z,99246.30
2023-03-16T01:59:14.262Z,99248.33
2023-03-16T02:01:17.654Z,99247.57
2023-03-16T02:03:21.665Z,99250.46
2023-03-16T02:05:46.002Z,99249.02
2023-03-16T02:07:58.478Z,99249.41
2023-03-16T02:10:03.054Z,99248.02
2023-03-16T02:12:07.886Z,99250.50
2023-03-16T02:14:15.783Z,99247.08
2023-03-16T02:16:20.110Z,99251.81
2023-03-16T02:18:26.226Z,99247.34
2023-03-16T02:20:48.170Z,99247.70
2023-03-16T02:22:54.191Z,99250.84
2023-03-16T02:24:57.380Z,99245.27
2023-03-16T02:27:05.168Z,99243.52
2023-03-16T02:29:48.323Z,99246.66
2023-03-16T02:31:53.732Z,99246.15
2023-03-16T02:33:56.603Z,99240.86
2023-03-16T02:35:59.485Z,99241.80
2023-03-16T02:38:04.017Z,99239.23
2023-03-16T02:40:22.497Z,99229.59
2023-03-16T02:42:28.371Z,99223.08
2023-03-16T02:44:40.641Z,99224.45
2023-03-16T02:46:44.511Z,99223.73
2023-03-16T02:49:00.194Z,99222.61
2023-03-16T02:51:03.422Z,99221.77
2023-03-16T02:53:08.576Z,99225.30
2023-03-16T02:55:12.130Z,99224.66
2023-03-16T02:57:17.407Z,99225.28
2023-03-16T02:59:20.953Z,99223.66
2023-03-16T03:01:24.345Z,99226.70
2023-03-16T03:03:27.326Z,99232.54
2023-03-16T03:05:30.164Z,99234.36
2023-03-16T03:07:32.884Z,99234.71
2023-03-16T03:09:38.798Z,99235.55
2023-03-16T03:11:41.747Z,99235.55
2023-03-16T03:13:44.603Z,99239.62
2023-03-16T03:15:50.410Z,99237.46
2023-03-16T03:17:54.892Z,99238.54
2023-03-16T03:19:59.176Z,99243.10
2023-03-16T03:22:06.482Z,99243.33
2023-03-16T03:24:09.938Z,99239.86
2023-03-16T03:26:15.453Z,99241.94
2023-03-16T03:28:19.843Z,99244.52
2023-03-16T03:30:25.490Z,99242.01
2023-03-16T03:32:28.132Z,99235.98
2023-03-16T03:34:31.744Z,99233.50
2023-03-16T03:36:35.294Z,99233.13
2023-03-16T03:38:38.829Z,99236.64
2023-03-16T03:40:42.054Z,99233.43
2023-03-16T03:42:44.823Z,99237.95
2023-03-16T03:44:48.578Z,99235.23
2023-03-16T03:46:52.023Z,99231.83
2023-03-16T03:48:54.857Z,99229.86
2023-03-16T03:50:57.815Z,99230.49
2023-03-16T03:53:36.348Z,99230.61
2023-03-16T03:56:02.274Z,99227.85
2023-03-16T03:58:05.919Z,99227.91
2023-03-16T04:00:11.441Z,99227.83
2023-03-16T04:02:17.891Z,99226.36
2023-03-16T04:04:26.601Z,99229.55
2023-03-16T04:06:32.087Z,99226.92
2023-03-16T04:08:35.458Z,99228.15
2023-03-16T04:10:38.366Z,99232.10
2023-03-16T04:12:41.807Z,99229.15
2023-03-16T04:14:48.098Z,99231.53
2023-03-16T04:16:51.225Z,99228.06
2023-03-16T04:18:54.928Z,99229.15
2023-03-16T04:20:58.553Z,99222.01
2023-03-16T04:23:01.372Z,99224.80
2023-03-16T04:25:05.257Z,99222.51
2023-03-16T04:27:09.759Z,99225.19
2023-03-16T04:29:17.976Z,99222.77
2023-03-16T04:31:23.641Z,99219.31
2023-03-16T04:33:28.110Z,99214.50
2023-03-16T04:35:31.885Z,99211.22
2023-03-16T04:37:34.887Z,99213.13
2023-03-16T04:39:38.321Z,99208.55
2023-03-16T04:41:42.014Z,99207.12
2023-03-16T04:43:48.978Z,99206.45
2023-03-16T04:45:55.052Z,99206.11
2023-03-16T04:47:58.590Z,99208.14
2023-03-16T04:50:02.925Z,99210.05
2023-03-16T04:52:07.755Z,99210.02
2023-03-16T04:54:11.392Z,99207.52
2023-03-16T04:56:18.445Z,99208.16
2023-03-16T04:58:22.905Z,99207.64
2023-03-16T05:00:26.477Z,99212.79
2023-03-16T05:02:43.166Z,99203.15
2023-03-16T05:04:47.231Z,99202.71
2023-03-16T05:06:51.521Z,99201.63
2023-03-16T05:08:59.606Z,99201.87
2023-03-16T05:11:02.828Z,99199.95
2023-03-16T05:13:08.239Z,99201.52
2023-03-16T05:15:11.783Z,99197.95
2023-03-16T05:17:20.561Z,99198.98
2023-03-16T05:19:23.186Z,99197.60
2023-03-16T05:21:26.520Z,99201.79
2023-03-16T05:23:34.366Z,99204.74
2023-03-16T05:25:40.418Z,99209.29
2023-03-16T05:27:46.006Z,99214.14
2023-03-16T05:29:49.192Z,99218.63
2023-03-16T05:31:56.892Z,99217.48
2023-03-16T05:34:00.786Z,99215.13
2023-03-16T05:36:04.418Z,99213.86
2023-03-16T05:38:08.715Z,99216.90
2023-03-16T05:40:18.224Z,99219.16
2023-03-16T05:42:27.123Z,99221.48
2023-03-16T05:44:35.438Z,99221.06
2023-03-16T05:46:47.655Z,99218.11
2023-03-16T05:48:50.284Z,99218.11
2023-03-16T05:50:55.288Z,99212.91
2023-03-16T05:53:02.709Z,99214.14
2023-03-16T05:55:07.726Z,99213.58
2023-03-16T05:57:10.909Z,99209.96
2023-03-16T05:59:14.284Z,99208.40
2023-03-16T06:01:16.903Z,99209.60
2023-03-16T06:03:22.774Z,99210.61
2023-03-16T06:05:26.047Z,99210.40
2023-03-16T06:07:32.048Z,99211.46
2023-03-16T06:09:35.698Z,99211.35
2023-03-16T06:11:39.420Z,99213.13
2023-03-16T06:13:42.037Z,99216.63
2023-03-16T06:15:44.678Z,99220.98
2023-03-16T06:17:48.854Z,99221.86
2023-03-16T06:19:51.773Z,99219.83
2023-03-16T06:21:54.550Z,99218.52
2023-03-16T06:23:57.219Z,99222.90
2023-03-16T06:26:01.234Z,99226.23
2023-03-16T06:28:06.137Z,99232.70
2023-03-16T06:30:11.944Z,99233.53
2023-03-16T06:32:15.655Z,99233.48
2023-03-16T06:34:18.995Z,99236.59
2023-03-16T06:36:21.722Z,99236.45
2023-03-16T06:38:29.339Z,99235.48
2023-03-16T06:40:37.816Z,99236.79
2023-03-16T06:42:41.620Z,99236.76
2023-03-16T06:44:46.164Z,99236.23
2023-03-16T06:46:48.992Z,99237.08
2023-03-16T06:48:51.925Z,99237.75
2023-03-16T06:50:57.513Z,99229.96
2023-03-16T06:53:03.055Z,99228.14
2023-03-16T06:55:06.709Z,99228.68
2023-03-16T06:57:10.236Z,99227.26
2023-03-16T06:59:12.854Z,99231.26
2023-03-16T07:01:15.841Z,99235.17
2023-03-16T07:03:19.416Z,99234.38
2023-03-16T07:05:25.997Z,99230.21
2023-03-16T07:07:28.640Z,99233.29
2023-03-16T07:09:32.059Z,99231.52
2023-03-16T07:11:34.764Z,99232.58
2023-03-16T07:13:37.630Z,99235.27
2023-03-16T07:15:40.431Z,99235.73
2023-03-16T07:17:43.508Z,99237.41
2023-03-16T07:19:46.340Z,99236.34
2023-03-16T07:21:49.779Z,99233.30
2023-03-16T07:23:55.831Z,99237.17
2023-03-16T07:26:00.962Z,99234.82
2023-03-16T07:28:04.325Z,99230.46
2023-03-16T07:30:14.127Z,99231.91
2023-03-16T07:32:19.276Z,99233.03
2023-03-16T07:34:22.322Z,99229.35
2023-03-16T07:36:29.494Z,99233.18
2023-03-16T07:38:34.921Z,99239.15
2023-03-16T07:40:41.590Z,99239.81
2023-03-16T07:42:49.893Z,99241.25
2023-03-16T07:45:04.341Z,99243.46
2023-03-16T07:47:07.383Z,99243.14
2023-03-16T07:49:13.346Z,99240.34
2023-03-16T07:51:16.597Z,99241.24
2023-03-16T07:53:22.843Z,99243.63
2023-03-16T07:55:32.976Z,99247.10
2023-03-16T07:57:35.774Z,99246.09
2023-03-16T07:59:38.651Z,99248.51
2023-03-16T08:01:41.534Z,99247.23
2023-03-16T08:03:45.920Z,99247.66
2023-03-16T08:05:48.600Z,99246.08
2023-03-16T08:07:51.721Z,99247.34
2023-03-16T08:09:58.381Z,99246.70
2023-03-16T08:12:08.002Z,99245.02
2023-03-16T08:14:12.017Z,99244.70
2023-03-16T08:16:32.611Z,99248.30
2023-03-16T08:18:35.279Z,99246.33
2023-03-16T08:20:38.084Z,99244.66
2023-03-16T08:22:46.328Z,99240.46
2023-03-16T08:24:50.500Z,99243.73
2023-03-16T08:26:53.796Z,99241.64
2023-03-16T08:28:56.586Z,99245.92
2023-03-16T08:30:59.248Z,99245.94
2023-03-16T08:33:10.388Z,99244.89
2023-03-16T08:35:15.340Z,99242.52
2023-03-16T08:37:18.521Z,99240.28
2023-03-16T08:39:21.733Z,99246.00
2023-03-16T08:41:24.669Z,99240.21
2023-03-16T08:43:28.196Z,99241.86
2023-03-16T08:45:31.000Z,99242.30
2023-03-16T08:47:34.068Z,99250.14
2023-03-16T08:49:38.018Z,99251.27
2023-03-16T08:51:45.088Z,99248.95
2023-03-16T08:53:47.931Z,99250.06
2023-03-16T08:55:50.595Z,99252.35
2023-03-16T08:57:53.201Z,99250.67
2023-03-16T08:59:55.908Z,99249.00
2023-03-16T09:01:58.856Z,99247.29
2023-03-16T09:04:03.493Z,99243.63
2023-03-16T09:06:10.121Z,99244.51
2023-03-16T09:08:12.892Z,99240.09
2023-03-16T09:10:19.784Z,99233.76
2023-03-16T09:12:23.494Z,99233.67
2023-03-16T09:14:26.749Z,99228.83
2023-03-16T09:16:31.115Z,99226.06
2023-03-16T09:18:36.443Z,99225.52
2023-03-16T09:20:40.829Z,99221.07
2023-03-16T09:22:43.642Z,99218.95
2023-03-16T09:24:47.263Z,99218.71
2023-03-16T09:26:50.622Z,99218.08
2023-03-16T09:28:54.671Z,99216.38
2023-03-16T09:30:58.159Z,99209.18
2023-03-16T09:33:00.971Z,99210.69
2023-03-16T09:35:06.258Z,99210.15
2023-03-16T09:37:09.707Z,99212.49
2023-03-16T09:39:13.528Z,99213.48
2023-03-16T09:41:36.862Z,99213.31
2023-03-16T09:43:45.490Z,99216.25
2023-03-16T09:46:11.965Z,99214.79
2023-03-16T09:48:17.008Z,99209.00
2023-03-16T09:50:28.183Z,99206.25
2023-03-16T09:53:10.561Z,99207.14
2023-03-16T09:55:33.222Z,99208.32
2023-03-16T09:57:41.113Z,99205.38
2023-03-16T09:59:45.513Z,99211.48
2023-03-16T10:02:04.342Z,99213.16
2023-03-16T10:04:40.542Z,99212.39
2023-03-16T10:07:00.909Z,99205.13
2023-03-16T10:09:31.950Z,99209.01
2023-03-16T10:11:42.912Z,99202.92
2023-03-16T10:13:54.882Z,99203.18
2023-03-16T10:16:02.715Z,99199.14
2023-03-16T10:18:18.109Z,99195.52
2023-03-16T10:20:24.954Z,99195.94
2023-03-16T10:22:35.049Z,99189.05
2023-03-16T10:25:01.302Z,99184.87
2023-03-16T10:27:07.604Z,99175.21
2023-03-16T10:29:14.645Z,99176.52
2023-03-16T10:31:22.982Z,99170.59
2023-03-16T10:33:32.533Z,99167.29
2023-03-16T10:36:09.331Z,99168.59
2023-03-16T10:38:39.871Z,99165.20
2023-03-16T10:40:42.845Z,99166.42
2023-03-16T10:42:47.793Z,99165.11
2023-03-16T10:44:57.007Z,99166.46
2023-03-16T10:47:04.285Z,99166.34
2023-03-16T10:49:20.963Z,99166.19
2023-03-16T10:51:27.402Z,99165.64
2023-03-16T10:53:35.408Z,99166.00
2023-03-16T10:55:43.692Z,99162.27
2023-03-16T10:57:55.185Z,99164.04
2023-03-16T11:00:07.247Z,99165.89
2023-03-16T11:02:22.787Z,99169.39
2023-03-16T11:04:26.108Z,99171.36
2023-03-16T11:06:32.643Z,99170.23
2023-03-16T11:08:39.793Z,99171.06
2023-03-16T11:10:55.505Z,99174.99
2023-03-16T11:13:19.566Z,99172.55
2023-03-16T11:15:26.566Z,99176.81
2023-03-16T11:17:42.017Z,99178.30
2023-03-16T11:19:57.588Z,99177.28
2023-03-16T11:22:02.986Z,99174.91
2023-03-16T11:24:14.909Z,99168.73
2023-03-16T11:26:30.288Z,99162.41
2023-03-16T11:28:42.186Z,99156.74
2023-03-16T11:31:08.896Z,99147.27
2023-03-16T11:33:14.277Z,99150.59
2023-03-16T11:35:19.698Z,99151.13
2023-03-16T11:37:49.416Z,99148.91
2023-03-16T11:40:02.179Z,99143.13
2023-03-16T11:42:20.599Z,99140.55
2023-03-16T11:44:52.025Z,99141.08
2023-03-16T11:47:25.834Z,99136.55
2023-03-16T11:49:45.802Z,99136.14
2023-03-16T11:52:43.077Z,99133.42
2023-03-16T11:55:19.414Z,99129.26
2023-03-16T11:57:42.059Z,99121.03
2023-03-16T12:00:06.444Z,99114.59
2023-03-16T12:02:09.984Z,99108.61
2023-03-16T12:04:30.595Z,99105.38
2023-03-16T12:07:01.268Z,99104.80
2023-03-16T12:09:13.482Z,99096.29
2023-03-16T12:11:31.503Z,99094.73
2023-03-16T12:14:13.205Z,99096.45
2023-03-16T12:16:49.932Z,99093.30
2023-03-16T12:19:00.105Z,99084.76
2023-03-16T12:21:09.317Z,99082.66
2023-03-16T12:23:42.458Z,99078.38
2023-03-16T12:25:47.561Z,99073.20
2023-03-16T12:27:56.008Z,99072.16
2023-03-16T12:30:27.409Z,99071.20
2023-03-16T12:32:33.797Z,99066.13
2023-03-16T12:34:51.139Z,99061.08
2023-03-16T12:37:05.426Z,99057.38
2023-03-16T12:39:18.628Z,99058.05
2023-03-16T12:41:30.481Z,99052.61
2023-03-16T12:43:52.410Z,99050.07
2023-03-16T12:46:07.689Z,99046.77
2023-03-16T12:48:34.038Z,99039.59
2023-03-16T12:50:49.564Z,99039.84
2023-03-16T12:52:53.857Z,99036.98
2023-03-16T12:55:13.900Z,99036.67
2023-03-16T12:57:18.608Z,99041.13
2023-03-16T12:59:23.741Z,99042.79
2023-03-16T13:01:31.433Z,99042.21
2023-03-16T13:03:36.365Z,99040.21
2023-03-16T13:05:47.610Z,99045.09
2023-03-16T13:08:03.829Z,99043.80
2023-03-16T13:10:11.384Z,99044.10
2023-03-16T13:12:36.962Z,99036.84
2023-03-16T13:14:42.608Z,99043.08
2023-03-16T13:16:47.705Z,99041.60
2023-03-16T13:18:52.734Z,99035.40
2023-03-16T13:21:02.047Z,99029.92
2023-03-16T13:23:28.840Z,99028.70
2023-03-16T13:25:32.348Z,99030.56
2023-03-16T13:27:35.794Z,99027.04
2023-03-16T13:29:39.085Z,99025.39
2023-03-16T13:31:42.858Z,99017.14
2023-03-16T13:33:47.154Z,99007.92
2023-03-16T13:35:52.593Z,99002.69
2023-03-16T13:38:05.755Z,98998.86
2023-03-16T13:40:20.298Z,99003.20
2023-03-16T13:42:25.130Z,99008.02
2023-03-16T13:44:29.480Z,99006.39
2023-03-16T13:46:32.956Z,99003.02
2023-03-16T13:48:37.556Z,99010.93
2023-03-16T13:50:44.747Z,99015.70
2023-03-16T13:52:58.151Z,99014.48
2023-03-16T13:55:06.670Z,99015.25
2023-03-16T13:57:12.658Z,99007.40
2023-03-16T13:59:17.764Z,99003.02
2023-03-16T14:01:29.665Z,98994.58
2023-03-16T14:03:38.145Z,98989.43
2023-03-16T14:05:41.324Z,98981.91
2023-03-16T14:07:51.253Z,98976.80
2023-03-16T14:09:58.487Z,98974.75
2023-03-16T14:12:03.909Z,98972.01
2023-03-16T14:14:16.053Z,98970.46
2023-03-16T14:16:20.407Z,98962.06
2023-03-16T14:18:29.405Z,98960.90
2023-03-16T14:20:34.988Z,98959.38
2023-03-16T14:22:43.901Z,98957.50
2023-03-16T14:24:55.237Z,98961.26
2023-03-16T14:27:10.160Z,98957.21
2023-03-16T14:29:30.549Z,98953.27
2023-03-16T14:31:38.834Z,98950.09
2023-03-16T14:33:46.059Z,98950.73
2023-03-16T14:35:56.152Z,98949.67
2023-03-16T14:38:24.644Z,98945.65
2023-03-16T14:40:32.131Z,98942.64
2023-03-16T14:42:35.339Z,98934.23
2023-03-16T14:44:38.858Z,98930.90
2023-03-16T14:46:42.368Z,98926.24
2023-03-16T14:48:45.731Z,98919.23
2023-03-16T14:50:57.432Z,98924.00
2023-03-16T14:53:04.299Z,98927.86
2023-03-16T14:55:13.293Z,98927.95
2023-03-16T14:57:17.627Z,98919.73
2023-03-16T14:59:23.827Z,98915.16
2023-03-16T15:01:27.808Z,98905.39
2023-03-16T15:03:34.304Z,98900.76
2023-03-16T15:05:42.367Z,98895.14
2023-03-16T15:07:46.308Z,98895.40
2023-03-16T15:09:50.574Z,98897.73
2023-03-16T15:11:55.546Z,98904.10
2023-03-16T15:14:16.361Z,98901.32
2023-03-16T15:16:22.105Z,98903.66
2023-03-16T15:18:25.144Z,98904.60
2023-03-16T15:20:35.908Z,98908.35
2023-03-16T15:22:39.307Z,98915.91
2023-03-16T15:24:42.558Z,98921.86
2023-03-16T15:26:45.434Z,98918.30
2023-03-16T15:28:48.360Z,98919.45
2023-03-16T15:30:53.762Z,98919.52
2023-03-16T15:32:56.656Z,98922.44
2023-03-16T15:34:59.285Z,98920.39
2023-03-16T15:37:01.902Z,98918.52
2023-03-16T15:39:05.721Z,98910.48
2023-03-16T15:41:11.316Z,98906.21
2023-03-16T15:43:17.874Z,98901.31
2023-03-16T15:45:22.517Z,98888.17
2023-03-16T15:47:25.209Z,98880.66
2023-03-16T15:49:30.176Z,98877.92
2023-03-16T15:51:35.187Z,98877.86
2023-03-16T15:53:50.995Z,98874.73
2023-03-16T15:55:59.483Z,98878.73
2023-03-16T15:58:02.650Z,98882.77
2023-03-16T16:00:07.235Z,98881.91
2023-03-16T16:02:31.203Z,98879.42
2023-03-16T16:04:34.345Z,98878.27
2023-03-16T16:06:37.296Z,98884.63
2023-03-16T16:08:41.869Z,98879.95
2023-03-16T16:10:46.140Z,98874.63
2023-03-16T16:12:51.522Z,98869.62
2023-03-16T16:14:56.185Z,98871.96
2023-03-16T16:16:59.557Z,98872.36
2023-03-16T16:19:02.256Z,98876.71
2023-03-16T16:21:07.249Z,98868.46
2023-03-16T16:23:10.614Z,98861.73
2023-03-16T16:25:14.117Z,98854.73
2023-03-16T16:27:16.888Z,98853.20
2023-03-16T16:29:25.632Z,98852.63
2023-03-16T16:31:30.668Z,98855.02
2023-03-16T16:33:35.752Z,98855.98
2023-03-16T16:35:38.529Z,98857.94
2023-03-16T16:37:41.562Z,98856.15
2023-03-16T16:39:44.710Z,98858.95
2023-03-16T16:41:52.582Z,98859.95
2023-03-16T16:43:56.989Z,98861.55
2023-03-16T16:46:02.043Z,98865.66
2023-03-16T16:48:29.166Z,98865.95
2023-03-16T16:50:33.703Z,98863.98
2023-03-16T16:52:37.182Z,98865.65
2023-03-16T16:54:39.852Z,98862.35
2023-03-16T16:56:42.831Z,98864.87
2023-03-16T16:58:46.566Z,98869.19
2023-03-16T17:00:59.155Z,98873.01
2023-03-16T17:03:02.490Z,98869.80
2023-03-16T17:05:05.286Z,98871.77
2023-03-16T17:07:11.544Z,98870.84
2023-03-16T17:09:15.129Z,98866.19
2023-03-16T17:11:29.152Z,98871.82
2023-03-16T17:13:39.597Z,98873.14
2023-03-16T17:15:44.108Z,98878.34
2023-03-16T17:17:47.824Z,98883.77
2023-03-16T17:19:50.379Z,98884.30
2023-03-16T17:21:55.693Z,98882.50
2023-03-16T17:24:00.299Z,98876.80
2023-03-16T17:26:18.394Z,98877.09
2023-03-16T17:28:23.607Z,98878.70
2023-03-16T17:30:29.733Z,98879.32
2023-03-16T17:32:33.404Z,98879.89
2023-03-16T17:34:36.130Z,98876.48
2023-03-16T17:36:39.250Z,98883.25
2023-03-16T17:38:43.451Z,98884.85
2023-03-16T17:40:48.978Z,98885.59
2023-03-16T17:42:55.845Z,98878.61
2023-03-16T17:44:58.854Z,98875.80
2023-03-16T17:47:02.959Z,98867.92
2023-03-16T17:49:14.053Z,98872.57
2023-03-16T17:51:20.103Z,98871.65
2023-03-16T17:53:26.854Z,98872.88
2023-03-16T17:55:31.130Z,98874.80
2023-03-16T17:57:36.506Z,98877.56
2023-03-16T17:59:39.791Z,98880.23
2023-03-16T18:01:46.320Z,98879.03
2023-03-16T18:03:49.678Z,98878.25
2023-03-16T18:05:53.528Z,98881.23
2023-03-16T18:08:20.980Z,98877.76
2023-03-16T18:10:29.858Z,98876.09
2023-03-16T18:12:34.135Z,98872.45
2023-03-16T18:14:39.669Z,98876.09
2023-03-16T18:16:42.719Z,98868.75
2023-03-16T18:18:46.347Z,98868.33
2023-03-16T18:20:50.928Z,98869.55
2023-03-16T18:22:56.448Z,98864.79
2023-03-16T18:25:01.989Z,98864.09
2023-03-16T18:27:08.333Z,98862.98
2023-03-16T18:29:14.073Z,98863.75
2023-03-16T18:31:27.212Z,98866.87
2023-03-16T18:33:40.971Z,98859.71
2023-03-16T18:35:44.572Z,98859.94
2023-03-16T18:37:49.033Z,98860.54
2023-03-16T18:39:54.260Z,98860.17
2023-03-16T18:41:57.811Z,98861.63
2023-03-16T18:44:16.849Z,98865.39
2023-03-16T18:46:31.539Z,98871.65
2023-03-16T18:48:35.825Z,98866.55
2023-03-16T18:50:43.661Z,98862.64
2023-03-16T18:52:48.038Z,98859.41
2023-03-16T18:54:55.773Z,98858.39
2023-03-16T18:57:01.964Z,98858.75
2023-03-16T18:59:05.365Z,98859.44
2023-03-16T19:01:21.357Z,98858.15
2023-03-16T19:03:35.118Z,98849.56
2023-03-16T19:05:39.602Z,98846.39
2023-03-16T19:07:50.338Z,98845.58
2023-03-16T19:09:54.951Z,98844.17
2023-03-16T19:11:59.117Z,98842.79
2023-03-16T19:14:03.973Z,98838.34
2023-03-16T19:16:16.534Z,98840.16
2023-03-16T19:18:23.007Z,98843.06
2023-03-16T19:20:33.007Z,98843.77
2023-03-16T19:22:37.363Z,98842.27
2023-03-16T19:24:49.355Z,98841.86
2023-03-16T19:26:55.151Z,98848.56
2023-03-16T19:29:02.167Z,98854.14
2023-03-16T19:31:16.635Z,98851.50
2023-03-16T19:33:27.950Z,98848.14
2023-03-16T19:35:50.347Z,98847.60
2023-03-16T19:37:55.094Z,98845.30
2023-03-16T19:40:00.388Z,98837.29
2023-03-16T19:42:06.280Z,98834.48
2023-03-16T19:44:17.425Z,98830.30
2023-03-16T19:46:22.045Z,98828.42
2023-03-16T19:48:33.742Z,98825.52
2023-03-16T19:50:36.640Z,98826.31
2023-03-16T19:52:41.974Z,98829.70
2023-03-16T19:54:45.671Z,98830.27
2023-03-16T19:56:52.494Z,98833.94
2023-03-16T19:58:55.624Z,98835.62
2023-03-16T20:01:06.455Z,98839.59
2023-03-16T20:03:10.984Z,98842.66
2023-03-16T20:05:20.938Z,98846.60
2023-03-16T20:07:24.915Z,98844.94
2023-03-16T20:09:29.360Z,98843.14
2023-03-16T20:11:33.067Z,98845.05
2023-03-16T20:13:37.336Z,98842.79
2023-03-16T20:15:40.800Z,98846.44
2023-03-16T20:17:46.083Z,98846.55
2023-03-16T20:19:50.864Z,98842.11
2023-03-16T20:21:54.821Z,98843.16
2023-03-16T20:23:59.151Z,98842.45
2023-03-16T20:26:03.777Z,98841.33
2023-03-16T20:28:22.513Z,98839.80
2023-03-16T20:30:26.611Z,98839.80
2023-03-16T20:32:35.022Z,98841.77
2023-03-16T20:34:40.910Z,98837.45
2023-03-16T20:36:44.873Z,98839.42
2023-03-16T20:38:47.978Z,98836.94
2023-03-16T20:40:54.194Z,98839.45
2023-03-16T20:42:56.816Z,98837.98
2023-03-16T20:45:02.037Z,98836.92
2023-03-16T20:47:14.758Z,98836.25
2023-03-16T20:49:22.182Z,98838.42
2023-03-16T20:51:28.936Z,98837.77
2023-03-16T20:53:32.300Z,98833.88
2023-03-16T20:55:36.545Z,98833.38
2023-03-16T20:57:46.343Z,98835.79
2023-03-16T20:59:51.883Z,98837.19
2023-03-16T21:01:56.115Z,98836.21
2023-03-16T21:04:00.065Z,98832.47
2023-03-16T21:06:14.544Z,98837.24
2023-03-16T21:08:19.377Z,98838.71
2023-03-16T21:10:24.705Z,98833.79
2023-03-16T21:12:32.338Z,98834.27
2023-03-16T21:14:35.281Z,98829.78
2023-03-16T21:16:40.374Z,98825.36
2023-03-16T21:18:44.664Z,98821.16
2023-03-16T21:20:49.994Z,98815.54
2023-03-16T21:22:53.656Z,98815.39
2023-03-16T21:24:57.386Z,98816.52
2023-03-16T21:27:02.115Z,98816.10
2023-03-16T21:29:08.709Z,98817.02
2023-03-16T21:31:19.577Z,98819.52
2023-03-16T21:33:31.134Z,98818.21
2023-03-16T21:35:37.412Z,98815.02
2023-03-16T21:37:40.984Z,98815.76
2023-03-16T21:39:46.420Z,98818.48
2023-03-16T21:41:50.718Z,98819.73
2023-03-16T21:43:54.475Z,98818.48
2023-03-16T21:45:57.977Z,98819.64
2023-03-16T21:48:01.019Z,98814.61
2023-03-16T21:50:15.325Z,98818.07
2023-03-16T21:52:23.755Z,98814.84
2023-03-16T21:54:26.476Z,98818.05
2023-03-16T21:56:29.090Z,98819.08
2023-03-16T21:58:32.110Z,98821.06
2023-03-16T22:00:37.102Z,98816.88
2023-03-16T22:02:41.012Z,98817.83
2023-03-16T22:04:44.206Z,98818.02
2023-03-16T22:06:47.226Z,98815.04
2023-03-16T22:08:51.247Z,98812.77
2023-03-16T22:10:55.534Z,98813.45
2023-03-16T22:12:58.736Z,98814.94
2023-03-16T22:15:01.487Z,98810.09
2023-03-16T22:17:05.805Z,98805.84
2023-03-16T22:19:19.350Z,98801.56
2023-03-16T22:21:38.675Z,98796.58
2023-03-16T22:23:41.487Z,98796.70
2023-03-16T22:25:44.103Z,98797.38
2023-03-16T22:27:47.463Z,98799.66
2023-03-16T22:29:51.081Z,98801.38
2023-03-16T22:32:18.411Z,98798.47
2023-03-16T22:34:28.868Z,98801.65
2023-03-16T22:36:33.130Z,98801.00
2023-03-16T22:38:36.256Z,98798.27
2023-03-16T22:40:40.531Z,98797.70
2023-03-16T22:42:43.270Z,98794.73
2023-03-16T22:44:46.095Z,98792.65
2023-03-16T22:46:50.755Z,98785.64
2023-03-16T22:48:55.056Z,98787.09
2023-03-16T22:51:10.752Z,98785.75
2023-03-16T22:53:24.888Z,98779.40
2023-03-16T22:55:33.262Z,98780.64
2023-03-16T22:57:36.154Z,98777.38
2023-03-16T22:59:38.709Z,98764.71
2023-03-16T23:01:44.312Z,98767.41
2023-03-16T23:03:49.610Z,98764.88
2023-03-16T23:05:53.265Z,98765.92
2023-03-16T23:07:59.929Z,98764.70
2023-03-16T23:10:02.689Z,98764.11
2023-03-16T23:12:14.063Z,98763.40
2023-03-16T23:14:22.449Z,98761.20
2023-03-16T23:16:46.114Z,98762.23
2023-03-16T23:18:50.574Z,98762.48
2023-03-16T23:20:53.562Z,98757.54
2023-03-16T23:22:56.627Z,98752.02
2023-03-16T23:24:59.280Z,98751.80
2023-03-16T23:27:03.397Z,98743.23
2023-03-16T23:29:06.099Z,98741.23
2023-03-16T23:31:13.506Z,98741.32
2023-03-16T23:33:16.766Z,98741.09
2023-03-16T23:35:28.930Z,98732.58
2023-03-16T23:37:32.361Z,98728.69
2023-03-16T23:39:35.537Z,98734.64
2023-03-16T23:41:41.580Z,98743.55
2023-03-16T23:43:45.787Z,98744.81
2023-03-16T23:45:52.098Z,98743.16
2023-03-16T23:47:57.486Z,98743.34
2023-03-16T23:50:00.718Z,98743.40
2023-03-16T23:52:04.507Z,98744.71
2023-03-16T23:54:17.911Z,98746.05
2023-03-16T23:56:22.212Z,98748.17
2023-03-16T23:58:25.291Z,98751.67
